KBRO

Brownsville / South Padre Island International Airport

Brownsville, Texas, USA
METAR KBRO 252153Z 12012G18KT 10SM CLR 33/22 A2987 RMK AO2 SLP114 T03330222
Observed Flight Rules
May-25 @ 21:53 UTC (44 minutes ago) Visual Flight Rules
Wind Visibility Clouds
120° at 12 knots
 Gusting to 18 knots
10 miles
  • Clear skies
Temperatures Readings
Current 33°C / 91°F
Dewpoint 22°C / 72°F
Humidity 52%
Altimeter 29.87" Hg
Pressure 1011.4 hPa
Elevation 7
METAR KBRO 252153Z 12012G18KT 10SM CLR 33/22 A2987 RMK AO2 SLP114 T03330222
Observed Flight Rules
May-25 @ 21:53 UTC
(44 minutes ago)
VFR
Wind Visibility
120° at 12 knots
 Gusting to 18 knots
10 miles
Clouds
  • Clear skies
Temperature Dewpoint
33°C / 91°F 22°C / 72°F
Humidity Altimeter Pressure
52% 29.87" Hg 1011.4 hPa